Aviation Digital Data Service (ADDS)

Output produced by TAFs form (1738 UTC 21 April 2018)
found at http://aviationweather.gov/adds/tafs/
 
RJSN 211200Z 19005KT CAVOK 19/05 Q1019
TAF RJSN 211706Z 2118/2300 20006KT 9999 FEW030 
     BECMG 2201/2203 26010KT 
     BECMG 2206/2209 02006KT